sensor_id;sensor_type;location;lat;lon;timestamp;temperature;humidity
19755;DHT22;10036;47.812;9.274;2023-05-09T00:01:27;14.20;99.90
19755;DHT22;10036;47.812;9.274;2023-05-09T00:03:56;14.30;99.90
19755;DHT22;10036;47.812;9.274;2023-05-09T00:06:24;14.20;99.90
19755;DHT22;10036;47.812;9.274;2023-05-09T00:08:52;14.10;99.90
19755;DHT22;10036;47.812;9.274;2023-05-09T00:11:18;14.00;99.90
19755;DHT22;10036;47.812;9.274;2023-05-09T00:13:46;13.80;99.90
19755;DHT22;10036;47.812;9.274;2023-05-09T00:16:15;13.70;99.90
19755;DHT22;10036;47.812;9.274;2023-05-09T00:18:42;13.60;99.90
19755;DHT22;10036;47.812;9.274;2023-05-09T00:21:09;13.70;99.90
19755;DHT22;10036;47.812;9.274;2023-05-09T00:23:36;13.60;99.90
19755;DHT22;10036;47.812;9.274;2023-05-09T00:26:04;13.70;99.90
19755;DHT22;10036;47.812;9.274;2023-05-09T00:28:30;13.70;99.90
19755;DHT22;10036;47.812;9.274;2023-05-09T00:30:57;13.70;99.90
19755;DHT22;10036;47.812;9.274;2023-05-09T00:33:26;13.80;99.90
19755;DHT22;10036;47.812;9.274;2023-05-09T00:35:52;13.80;99.90
19755;DHT22;10036;47.812;9.274;2023-05-09T00:38:22;13.80;99.90
19755;DHT22;10036;47.812;9.274;2023-05-09T00:40:49;13.70;99.90
19755;DHT22;10036;47.812;9.274;2023-05-09T00:43:16;13.60;99.90
19755;DHT22;10036;47.812;9.274;2023-05-09T00:45:43;13.70;99.90
19755;DHT22;10036;47.812;9.274;2023-05-09T00:48:10;13.70;99.90
19755;DHT22;10036;47.812;9.274;2023-05-09T00:50:38;13.70;99.90
19755;DHT22;10036;47.812;9.274;2023-05-09T00:53:05;13.70;99.90
19755;DHT22;10036;47.812;9.274;2023-05-09T00:55:33;13.70;99.90
19755;DHT22;10036;47.812;9.274;2023-05-09T00:58:00;13.70;99.90
19755;DHT22;10036;47.812;9.274;2023-05-09T01:00:27;13.70;99.90
19755;DHT22;10036;47.812;9.274;2023-05-09T01:02:54;13.80;99.90
19755;DHT22;10036;47.812;9.274;2023-05-09T01:05:25;13.90;99.90
19755;DHT22;10036;47.812;9.274;2023-05-09T01:08:01;13.90;99.90
19755;DHT22;10036;47.812;9.274;2023-05-09T01:10:42;13.90;99.90
19755;DHT22;10036;47.812;9.274;2023-05-09T01:13:15;13.90;99.90
19755;DHT22;10036;47.812;9.274;2023-05-09T01:15:51;13.90;99.90
19755;DHT22;10036;47.812;9.274;2023-05-09T01:18:25;13.90;99.90
19755;DHT22;10036;47.812;9.274;2023-05-09T01:20:59;13.90;99.90
19755;DHT22;10036;47.812;9.274;2023-05-09T01:26:43;13.90;99.90
19755;DHT22;10036;47.812;9.274;2023-05-09T01:29:35;13.90;99.90
19755;DHT22;10036;47.812;9.274;2023-05-09T01:32:06;14.00;99.90
19755;DHT22;10036;47.812;9.274;2023-05-09T01:34:34;14.00;99.90
19755;DHT22;10036;47.812;9.274;2023-05-09T01:37:04;14.00;99.90
19755;DHT22;10036;47.812;9.274;2023-05-09T01:39:33;13.90;99.90
19755;DHT22;10036;47.812;9.274;2023-05-09T01:42:02;13.80;99.90
19755;DHT22;10036;47.812;9.274;2023-05-09T01:44:40;13.70;99.90
19755;DHT22;10036;47.812;9.274;2023-05-09T01:47:08;13.70;99.90
19755;DHT22;10036;47.812;9.274;2023-05-09T01:49:37;13.80;99.90
19755;DHT22;10036;47.812;9.274;2023-05-09T01:52:07;13.80;99.90
19755;DHT22;10036;47.812;9.274;2023-05-09T01:54:35;13.80;99.90
19755;DHT22;10036;47.812;9.274;2023-05-09T01:57:03;13.70;99.90
19755;DHT22;10036;47.812;9.274;2023-05-09T01:59:32;13.70;99.90
19755;DHT22;10036;47.812;9.274;2023-05-09T02:02:00;13.80;99.90
19755;DHT22;10036;47.812;9.274;2023-05-09T02:04:27;13.90;99.90
19755;DHT22;10036;47.812;9.274;2023-05-09T02:06:56;13.90;99.90
19755;DHT22;10036;47.812;9.274;2023-05-09T02:09:24;14.00;99.90
19755;DHT22;10036;47.812;9.274;2023-05-09T02:11:51;14.00;99.90
19755;DHT22;10036;47.812;9.274;2023-05-09T02:14:19;14.00;99.90
19755;DHT22;10036;47.812;9.274;2023-05-09T02:16:47;14.00;99.90
19755;DHT22;10036;47.812;9.274;2023-05-09T02:19:15;13.90;99.90
19755;DHT22;10036;47.812;9.274;2023-05-09T02:21:42;14.00;99.90
19755;DHT22;10036;47.812;9.274;2023-05-09T02:24:09;14.00;99.90
19755;DHT22;10036;47.812;9.274;2023-05-09T02:26:36;14.00;99.90
19755;DHT22;10036;47.812;9.274;2023-05-09T02:29:05;13.90;99.90
19755;DHT22;10036;47.812;9.274;2023-05-09T02:31:33;13.90;99.90
19755;DHT22;10036;47.812;9.274;2023-05-09T02:34:02;14.00;99.90
19755;DHT22;10036;47.812;9.274;2023-05-09T02:36:31;14.00;99.90
19755;DHT22;10036;47.812;9.274;2023-05-09T02:38:58;14.10;99.90
19755;DHT22;10036;47.812;9.274;2023-05-09T02:41:25;14.00;99.90
19755;DHT22;10036;47.812;9.274;2023-05-09T02:43:53;13.90;99.90
19755;DHT22;10036;47.812;9.274;2023-05-09T02:46:20;13.80;99.90
19755;DHT22;10036;47.812;9.274;2023-05-09T02:48:47;13.80;99.90
19755;DHT22;10036;47.812;9.274;2023-05-09T02:51:15;13.80;99.90
19755;DHT22;10036;47.812;9.274;2023-05-09T02:53:42;13.70;99.90
19755;DHT22;10036;47.812;9.274;2023-05-09T02:56:09;13.70;99.90
19755;DHT22;10036;47.812;9.274;2023-05-09T02:58:36;13.60;99.90
19755;DHT22;10036;47.812;9.274;2023-05-09T03:01:03;13.60;99.90
19755;DHT22;10036;47.812;9.274;2023-05-09T03:03:31;13.70;99.90
19755;DHT22;10036;47.812;9.274;2023-05-09T03:05:59;13.70;99.90
19755;DHT22;10036;47.812;9.274;2023-05-09T03:08:27;13.70;99.90
19755;DHT22;10036;47.812;9.274;2023-05-09T03:10:54;13.70;99.90
19755;DHT22;10036;47.812;9.274;2023-05-09T03:13:21;13.80;99.90
19755;DHT22;10036;47.812;9.274;2023-05-09T03:15:48;13.80;99.90
19755;DHT22;10036;47.812;9.274;2023-05-09T03:18:15;13.80;99.90
19755;DHT22;10036;47.812;9.274;2023-05-09T03:20:42;13.80;99.90
19755;DHT22;10036;47.812;9.274;2023-05-09T03:23:09;13.70;99.90
19755;DHT22;10036;47.812;9.274;2023-05-09T03:25:37;13.70;99.90
19755;DHT22;10036;47.812;9.274;2023-05-09T03:28:04;13.50;99.90
19755;DHT22;10036;47.812;9.274;2023-05-09T03:30:31;13.40;99.90
19755;DHT22;10036;47.812;9.274;2023-05-09T03:32:58;13.50;99.90
19755;DHT22;10036;47.812;9.274;2023-05-09T03:35:24;13.50;99.90
19755;DHT22;10036;47.812;9.274;2023-05-09T03:37:51;13.50;99.90
19755;DHT22;10036;47.812;9.274;2023-05-09T03:40:18;13.50;99.90
19755;DHT22;10036;47.812;9.274;2023-05-09T03:42:46;13.50;99.90
19755;DHT22;10036;47.812;9.274;2023-05-09T03:45:13;13.60;99.90
19755;DHT22;10036;47.812;9.274;2023-05-09T03:47:40;13.70;99.90
19755;DHT22;10036;47.812;9.274;2023-05-09T03:50:08;13.80;99.90
19755;DHT22;10036;47.812;9.274;2023-05-09T03:52:35;13.80;99.90
19755;DHT22;10036;47.812;9.274;2023-05-09T03:55:03;13.90;99.90
19755;DHT22;10036;47.812;9.274;2023-05-09T03:57:30;13.90;99.90
19755;DHT22;10036;47.812;9.274;2023-05-09T03:59:58;13.90;99.90
19755;DHT22;10036;47.812;9.274;2023-05-09T04:02:25;13.90;99.90
19755;DHT22;10036;47.812;9.274;2023-05-09T04:04:52;13.90;99.90
19755;DHT22;10036;47.812;9.274;2023-05-09T04:07:19;13.90;99.90
19755;DHT22;10036;47.812;9.274;2023-05-09T04:09:46;14.00;99.90
19755;DHT22;10036;47.812;9.274;2023-05-09T04:12:14;14.00;99.90
19755;DHT22;10036;47.812;9.274;2023-05-09T04:14:40;14.10;99.90
19755;DHT22;10036;47.812;9.274;2023-05-09T04:17:09;14.00;99.90
19755;DHT22;10036;47.812;9.274;2023-05-09T04:19:36;14.00;99.90
19755;DHT22;10036;47.812;9.274;2023-05-09T04:22:02;13.90;99.90
19755;DHT22;10036;47.812;9.274;2023-05-09T04:24:29;14.00;99.90
19755;DHT22;10036;47.812;9.274;2023-05-09T04:26:56;14.00;99.90
19755;DHT22;10036;47.812;9.274;2023-05-09T04:29:23;14.00;99.90
19755;DHT22;10036;47.812;9.274;2023-05-09T04:31:50;14.00;99.90
19755;DHT22;10036;47.812;9.274;2023-05-09T04:34:18;14.00;99.90
19755;DHT22;10036;47.812;9.274;2023-05-09T04:36:45;14.00;99.90
19755;DHT22;10036;47.812;9.274;2023-05-09T04:39:12;14.10;99.90
19755;DHT22;10036;47.812;9.274;2023-05-09T04:41:39;14.10;99.90
19755;DHT22;10036;47.812;9.274;2023-05-09T04:44:09;14.10;99.90
19755;DHT22;10036;47.812;9.274;2023-05-09T04:46:36;14.10;99.90
19755;DHT22;10036;47.812;9.274;2023-05-09T04:49:03;14.20;99.90
19755;DHT22;10036;47.812;9.274;2023-05-09T04:51:31;14.10;99.90
19755;DHT22;10036;47.812;9.274;2023-05-09T04:53:58;14.10;99.90
19755;DHT22;10036;47.812;9.274;2023-05-09T04:56:25;14.10;99.90
19755;DHT22;10036;47.812;9.274;2023-05-09T04:58:51;14.10;99.90
19755;DHT22;10036;47.812;9.274;2023-05-09T05:01:18;14.10;99.90
19755;DHT22;10036;47.812;9.274;2023-05-09T05:03:45;14.10;99.90
19755;DHT22;10036;47.812;9.274;2023-05-09T05:06:12;14.20;99.90
19755;DHT22;10036;47.812;9.274;2023-05-09T05:08:40;14.30;99.90
19755;DHT22;10036;47.812;9.274;2023-05-09T05:11:07;14.20;99.90
19755;DHT22;10036;47.812;9.274;2023-05-09T05:13:34;14.20;99.90
19755;DHT22;10036;47.812;9.274;2023-05-09T05:16:01;14.30;99.90
19755;DHT22;10036;47.812;9.274;2023-05-09T05:18:28;14.30;99.90
19755;DHT22;10036;47.812;9.274;2023-05-09T05:20:55;14.40;99.90
19755;DHT22;10036;47.812;9.274;2023-05-09T05:23:22;14.40;99.90
19755;DHT22;10036;47.812;9.274;2023-05-09T05:25:50;14.40;99.90
19755;DHT22;10036;47.812;9.274;2023-05-09T05:28:17;14.40;99.90
19755;DHT22;10036;47.812;9.274;2023-05-09T05:30:44;14.30;99.90
19755;DHT22;10036;47.812;9.274;2023-05-09T05:33:10;14.40;99.90
19755;DHT22;10036;47.812;9.274;2023-05-09T05:35:37;14.30;99.90
19755;DHT22;10036;47.812;9.274;2023-05-09T05:38:05;14.40;99.90
19755;DHT22;10036;47.812;9.274;2023-05-09T05:40:32;14.30;99.90
19755;DHT22;10036;47.812;9.274;2023-05-09T05:43:00;14.20;99.90
19755;DHT22;10036;47.812;9.274;2023-05-09T05:45:27;14.20;99.90
19755;DHT22;10036;47.812;9.274;2023-05-09T05:47:55;14.20;99.90
19755;DHT22;10036;47.812;9.274;2023-05-09T05:50:22;14.30;99.90
19755;DHT22;10036;47.812;9.274;2023-05-09T05:52:49;14.30;99.90
19755;DHT22;10036;47.812;9.274;2023-05-09T05:55:16;14.40;99.90
19755;DHT22;10036;47.812;9.274;2023-05-09T05:57:42;14.60;99.90
19755;DHT22;10036;47.812;9.274;2023-05-09T06:00:12;14.70;99.90
19755;DHT22;10036;47.812;9.274;2023-05-09T06:02:41;14.70;99.90
19755;DHT22;10036;47.812;9.274;2023-05-09T06:05:09;14.60;99.90
19755;DHT22;10036;47.812;9.274;2023-05-09T06:07:36;14.60;99.90
19755;DHT22;10036;47.812;9.274;2023-05-09T06:10:05;14.60;99.90
19755;DHT22;10036;47.812;9.274;2023-05-09T06:12:33;14.70;99.90
19755;DHT22;10036;47.812;9.274;2023-05-09T06:14:59;14.70;99.90
19755;DHT22;10036;47.812;9.274;2023-05-09T06:17:28;14.80;99.90
19755;DHT22;10036;47.812;9.274;2023-05-09T06:19:55;14.80;99.90
19755;DHT22;10036;47.812;9.274;2023-05-09T06:22:22;15.00;99.90
19755;DHT22;10036;47.812;9.274;2023-05-09T06:24:49;15.10;99.90
19755;DHT22;10036;47.812;9.274;2023-05-09T06:27:15;15.00;99.90
19755;DHT22;10036;47.812;9.274;2023-05-09T06:29:42;15.00;99.90
19755;DHT22;10036;47.812;9.274;2023-05-09T06:32:09;15.00;99.90
19755;DHT22;10036;47.812;9.274;2023-05-09T06:34:37;15.10;99.90
19755;DHT22;10036;47.812;9.274;2023-05-09T06:37:06;15.20;99.90
19755;DHT22;10036;47.812;9.274;2023-05-09T06:39:33;15.30;99.90
19755;DHT22;10036;47.812;9.274;2023-05-09T06:42:00;15.40;99.90
19755;DHT22;10036;47.812;9.274;2023-05-09T06:44:26;15.30;99.90
19755;DHT22;10036;47.812;9.274;2023-05-09T06:46:53;15.40;99.90
19755;DHT22;10036;47.812;9.274;2023-05-09T06:49:20;15.60;99.90
19755;DHT22;10036;47.812;9.274;2023-05-09T06:51:49;15.80;99.90
19755;DHT22;10036;47.812;9.274;2023-05-09T06:54:15;15.60;99.90
19755;DHT22;10036;47.812;9.274;2023-05-09T06:56:42;15.30;99.90
19755;DHT22;10036;47.812;9.274;2023-05-09T06:59:09;15.50;99.90
19755;DHT22;10036;47.812;9.274;2023-05-09T07:01:37;15.70;99.90
19755;DHT22;10036;47.812;9.274;2023-05-09T07:04:04;15.80;99.90
19755;DHT22;10036;47.812;9.274;2023-05-09T07:06:31;15.90;99.90
19755;DHT22;10036;47.812;9.274;2023-05-09T07:08:59;16.00;99.90
19755;DHT22;10036;47.812;9.274;2023-05-09T07:11:26;16.20;99.90
19755;DHT22;10036;47.812;9.274;2023-05-09T07:13:53;16.20;99.90
19755;DHT22;10036;47.812;9.274;2023-05-09T07:16:20;16.20;99.90
19755;DHT22;10036;47.812;9.274;2023-05-09T07:18:48;16.30;99.90
19755;DHT22;10036;47.812;9.274;2023-05-09T07:21:15;16.40;99.90
19755;DHT22;10036;47.812;9.274;2023-05-09T07:23:42;16.20;99.90
19755;DHT22;10036;47.812;9.274;2023-05-09T07:26:10;16.20;99.90
19755;DHT22;10036;47.812;9.274;2023-05-09T07:28:37;16.50;99.90
19755;DHT22;10036;47.812;9.274;2023-05-09T07:31:04;16.50;99.90
19755;DHT22;10036;47.812;9.274;2023-05-09T07:33:31;16.70;99.90
19755;DHT22;10036;47.812;9.274;2023-05-09T07:35:59;16.90;99.90
19755;DHT22;10036;47.812;9.274;2023-05-09T07:38:26;17.10;99.90
19755;DHT22;10036;47.812;9.274;2023-05-09T07:40:53;17.30;99.90
19755;DHT22;10036;47.812;9.274;2023-05-09T07:43:21;17.30;99.90
19755;DHT22;10036;47.812;9.274;2023-05-09T07:45:48;17.40;99.90
19755;DHT22;10036;47.812;9.274;2023-05-09T07:48:15;17.40;99.90
19755;DHT22;10036;47.812;9.274;2023-05-09T07:50:41;17.20;99.90
19755;DHT22;10036;47.812;9.274;2023-05-09T07:53:08;16.90;99.90
19755;DHT22;10036;47.812;9.274;2023-05-09T07:55:35;17.20;99.90
19755;DHT22;10036;47.812;9.274;2023-05-09T07:58:02;17.20;99.90
19755;DHT22;10036;47.812;9.274;2023-05-09T08:00:30;17.30;99.90
19755;DHT22;10036;47.812;9.274;2023-05-09T08:02:57;17.50;99.90
19755;DHT22;10036;47.812;9.274;2023-05-09T08:05:25;17.50;99.90
19755;DHT22;10036;47.812;9.274;2023-05-09T08:07:52;17.60;99.90
19755;DHT22;10036;47.812;9.274;2023-05-09T08:10:19;17.40;99.90
19755;DHT22;10036;47.812;9.274;2023-05-09T08:12:47;17.40;99.90
19755;DHT22;10036;47.812;9.274;2023-05-09T08:15:14;17.40;99.90
19755;DHT22;10036;47.812;9.274;2023-05-09T08:17:42;17.60;99.90
19755;DHT22;10036;47.812;9.274;2023-05-09T08:20:10;17.60;99.90
19755;DHT22;10036;47.812;9.274;2023-05-09T08:22:38;17.80;99.90
19755;DHT22;10036;47.812;9.274;2023-05-09T08:25:05;17.70;99.90
19755;DHT22;10036;47.812;9.274;2023-05-09T08:27:32;17.90;99.90
19755;DHT22;10036;47.812;9.274;2023-05-09T08:30:00;17.90;99.90
19755;DHT22;10036;47.812;9.274;2023-05-09T08:32:27;17.90;99.90
19755;DHT22;10036;47.812;9.274;2023-05-09T08:34:55;18.10;99.90
19755;DHT22;10036;47.812;9.274;2023-05-09T08:37:22;18.20;99.90
19755;DHT22;10036;47.812;9.274;2023-05-09T08:39:49;18.30;99.90
19755;DHT22;10036;47.812;9.274;2023-05-09T08:42:16;18.50;99.90
19755;DHT22;10036;47.812;9.274;2023-05-09T08:44:47;18.60;99.90
19755;DHT22;10036;47.812;9.274;2023-05-09T08:47:14;18.50;99.90
19755;DHT22;10036;47.812;9.274;2023-05-09T08:49:42;18.20;99.90
19755;DHT22;10036;47.812;9.274;2023-05-09T08:52:11;18.40;99.90
19755;DHT22;10036;47.812;9.274;2023-05-09T08:54:38;18.30;99.90
19755;DHT22;10036;47.812;9.274;2023-05-09T08:57:05;18.50;99.90
19755;DHT22;10036;47.812;9.274;2023-05-09T08:59:33;18.20;99.90
19755;DHT22;10036;47.812;9.274;2023-05-09T09:02:04;18.20;99.90
19755;DHT22;10036;47.812;9.274;2023-05-09T09:04:32;18.10;99.90
19755;DHT22;10036;47.812;9.274;2023-05-09T09:07:00;18.20;99.90
19755;DHT22;10036;47.812;9.274;2023-05-09T09:09:32;18.50;99.90
19755;DHT22;10036;47.812;9.274;2023-05-09T09:12:01;18.40;99.90
19755;DHT22;10036;47.812;9.274;2023-05-09T09:14:30;18.40;99.90
19755;DHT22;10036;47.812;9.274;2023-05-09T09:16:58;18.00;99.90
19755;DHT22;10036;47.812;9.274;2023-05-09T09:19:29;18.10;99.90
19755;DHT22;10036;47.812;9.274;2023-05-09T09:21:58;18.50;99.90
19755;DHT22;10036;47.812;9.274;2023-05-09T09:24:25;18.60;99.90
19755;DHT22;10036;47.812;9.274;2023-05-09T09:26:54;18.60;99.90
19755;DHT22;10036;47.812;9.274;2023-05-09T09:29:21;18.80;99.90
19755;DHT22;10036;47.812;9.274;2023-05-09T09:31:52;18.90;99.90
19755;DHT22;10036;47.812;9.274;2023-05-09T09:34:20;19.00;99.90
19755;DHT22;10036;47.812;9.274;2023-05-09T09:36:48;18.80;99.90
19755;DHT22;10036;47.812;9.274;2023-05-09T09:39:15;19.00;99.90
19755;DHT22;10036;47.812;9.274;2023-05-09T09:41:42;18.90;99.90
19755;DHT22;10036;47.812;9.274;2023-05-09T09:44:12;18.80;99.90
19755;DHT22;10036;47.812;9.274;2023-05-09T09:46:40;18.70;99.90
19755;DHT22;10036;47.812;9.274;2023-05-09T09:49:08;18.70;99.90
19755;DHT22;10036;47.812;9.274;2023-05-09T09:51:35;18.80;99.90
19755;DHT22;10036;47.812;9.274;2023-05-09T09:54:02;19.00;99.90
19755;DHT22;10036;47.812;9.274;2023-05-09T09:56:38;19.00;99.90
19755;DHT22;10036;47.812;9.274;2023-05-09T09:59:11;18.90;99.90
19755;DHT22;10036;47.812;9.274;2023-05-09T10:01:55;19.00;99.90
19755;DHT22;10036;47.812;9.274;2023-05-09T10:04:22;19.20;99.90
19755;DHT22;10036;47.812;9.274;2023-05-09T10:06:53;19.20;99.90
19755;DHT22;10036;47.812;9.274;2023-05-09T10:09:21;19.40;99.90
19755;DHT22;10036;47.812;9.274;2023-05-09T10:11:49;19.50;99.90
19755;DHT22;10036;47.812;9.274;2023-05-09T10:14:20;19.40;99.90
19755;DHT22;10036;47.812;9.274;2023-05-09T10:16:48;19.40;99.90
19755;DHT22;10036;47.812;9.274;2023-05-09T10:19:17;19.50;99.90
19755;DHT22;10036;47.812;9.274;2023-05-09T10:21:50;19.40;99.90
19755;DHT22;10036;47.812;9.274;2023-05-09T10:24:21;19.50;99.90
19755;DHT22;10036;47.812;9.274;2023-05-09T10:26:49;19.50;99.90
19755;DHT22;10036;47.812;9.274;2023-05-09T10:29:22;19.70;99.90
19755;DHT22;10036;47.812;9.274;2023-05-09T10:31:53;19.90;99.90
19755;DHT22;10036;47.812;9.274;2023-05-09T10:34:24;20.00;99.90
19755;DHT22;10036;47.812;9.274;2023-05-09T10:36:52;20.40;99.90
19755;DHT22;10036;47.812;9.274;2023-05-09T10:39:21;20.60;99.90
19755;DHT22;10036;47.812;9.274;2023-05-09T10:41:48;20.60;99.90
19755;DHT22;10036;47.812;9.274;2023-05-09T10:44:15;21.20;99.90
19755;DHT22;10036;47.812;9.274;2023-05-09T10:46:45;21.70;99.90
19755;DHT22;10036;47.812;9.274;2023-05-09T10:49:12;21.80;99.90
19755;DHT22;10036;47.812;9.274;2023-05-09T10:51:40;21.10;99.90
19755;DHT22;10036;47.812;9.274;2023-05-09T10:54:13;21.50;99.90
19755;DHT22;10036;47.812;9.274;2023-05-09T10:56:41;21.80;99.90
19755;DHT22;10036;47.812;9.274;2023-05-09T10:59:32;21.90;99.90
19755;DHT22;10036;47.812;9.274;2023-05-09T11:02:01;21.90;99.90
19755;DHT22;10036;47.812;9.274;2023-05-09T11:04:29;21.90;99.90
19755;DHT22;10036;47.812;9.274;2023-05-09T11:06:57;21.70;99.90
19755;DHT22;10036;47.812;9.274;2023-05-09T11:09:28;21.60;99.90
19755;DHT22;10036;47.812;9.274;2023-05-09T11:12:00;21.70;99.90
19755;DHT22;10036;47.812;9.274;2023-05-09T11:14:29;21.70;99.90
19755;DHT22;10036;47.812;9.274;2023-05-09T11:16:57;21.60;99.90
19755;DHT22;10036;47.812;9.274;2023-05-09T11:19:37;21.70;99.90
19755;DHT22;10036;47.812;9.274;2023-05-09T11:22:12;21.80;99.90
19755;DHT22;10036;47.812;9.274;2023-05-09T11:24:42;21.70;99.90
19755;DHT22;10036;47.812;9.274;2023-05-09T11:27:18;21.80;99.90
19755;DHT22;10036;47.812;9.274;2023-05-09T11:29:49;21.80;99.90
19755;DHT22;10036;47.812;9.274;2023-05-09T11:32:17;21.40;99.90
19755;DHT22;10036;47.812;9.274;2023-05-09T11:34:46;21.30;99.90
19755;DHT22;10036;47.812;9.274;2023-05-09T11:37:15;21.10;99.90
19755;DHT22;10036;47.812;9.274;2023-05-09T11:39:58;21.20;99.90
19755;DHT22;10036;47.812;9.274;2023-05-09T11:42:26;21.50;99.90
19755;DHT22;10036;47.812;9.274;2023-05-09T11:44:54;21.70;99.90
19755;DHT22;10036;47.812;9.274;2023-05-09T11:47:21;21.80;99.90
19755;DHT22;10036;47.812;9.274;2023-05-09T11:49:50;22.00;99.90
19755;DHT22;10036;47.812;9.274;2023-05-09T11:52:18;22.10;99.90
19755;DHT22;10036;47.812;9.274;2023-05-09T11:54:45;22.20;99.90
19755;DHT22;10036;47.812;9.274;2023-05-09T11:57:12;22.00;99.90
19755;DHT22;10036;47.812;9.274;2023-05-09T11:59:42;21.90;99.90
19755;DHT22;10036;47.812;9.274;2023-05-09T12:02:10;22.00;99.90
19755;DHT22;10036;47.812;9.274;2023-05-09T12:04:37;22.10;99.90
19755;DHT22;10036;47.812;9.274;2023-05-09T12:07:05;22.10;99.90
19755;DHT22;10036;47.812;9.274;2023-05-09T12:09:34;22.10;99.90
19755;DHT22;10036;47.812;9.274;2023-05-09T12:12:08;22.30;99.90
19755;DHT22;10036;47.812;9.274;2023-05-09T12:14:37;22.40;99.90
19755;DHT22;10036;47.812;9.274;2023-05-09T12:17:05;22.40;99.90
19755;DHT22;10036;47.812;9.274;2023-05-09T12:19:32;22.30;99.90
19755;DHT22;10036;47.812;9.274;2023-05-09T12:22:00;22.40;99.90
19755;DHT22;10036;47.812;9.274;2023-05-09T12:24:29;22.30;99.90
19755;DHT22;10036;47.812;9.274;2023-05-09T12:26:58;22.00;99.90
19755;DHT22;10036;47.812;9.274;2023-05-09T12:29:26;21.90;99.90
19755;DHT22;10036;47.812;9.274;2023-05-09T12:31:55;22.30;99.90
19755;DHT22;10036;47.812;9.274;2023-05-09T12:34:22;22.40;99.90
19755;DHT22;10036;47.812;9.274;2023-05-09T12:36:49;22.40;99.90
19755;DHT22;10036;47.812;9.274;2023-05-09T12:39:16;22.60;99.90
19755;DHT22;10036;47.812;9.274;2023-05-09T12:41:48;22.80;99.90
19755;DHT22;10036;47.812;9.274;2023-05-09T12:44:23;23.00;99.90
19755;DHT22;10036;47.812;9.274;2023-05-09T12:46:57;22.40;99.90
19755;DHT22;10036;47.812;9.274;2023-05-09T12:49:25;22.40;99.90
19755;DHT22;10036;47.812;9.274;2023-05-09T12:51:53;22.80;99.90
19755;DHT22;10036;47.812;9.274;2023-05-09T12:54:21;23.10;99.90
19755;DHT22;10036;47.812;9.274;2023-05-09T12:56:50;23.40;99.90
19755;DHT22;10036;47.812;9.274;2023-05-09T12:59:22;23.40;99.90
19755;DHT22;10036;47.812;9.274;2023-05-09T13:01:53;23.40;99.90
19755;DHT22;10036;47.812;9.274;2023-05-09T13:04:22;23.50;99.90
19755;DHT22;10036;47.812;9.274;2023-05-09T13:06:50;23.10;99.90
19755;DHT22;10036;47.812;9.274;2023-05-09T13:09:18;22.90;99.90
19755;DHT22;10036;47.812;9.274;2023-05-09T13:11:45;22.80;99.90
19755;DHT22;10036;47.812;9.274;2023-05-09T13:14:14;22.80;99.90
19755;DHT22;10036;47.812;9.274;2023-05-09T13:16:42;22.70;99.90
19755;DHT22;10036;47.812;9.274;2023-05-09T13:19:09;22.70;99.90
19755;DHT22;10036;47.812;9.274;2023-05-09T13:21:36;22.50;99.90
19755;DHT22;10036;47.812;9.274;2023-05-09T13:24:04;22.70;99.90
19755;DHT22;10036;47.812;9.274;2023-05-09T13:26:31;22.40;99.90
19755;DHT22;10036;47.812;9.274;2023-05-09T13:28:58;22.60;99.90
19755;DHT22;10036;47.812;9.274;2023-05-09T13:31:27;22.70;99.90
19755;DHT22;10036;47.812;9.274;2023-05-09T13:33:53;22.70;99.90
19755;DHT22;10036;47.812;9.274;2023-05-09T13:36:20;22.90;99.90
19755;DHT22;10036;47.812;9.274;2023-05-09T13:38:47;23.00;99.90
19755;DHT22;10036;47.812;9.274;2023-05-09T13:41:14;23.20;99.90
19755;DHT22;10036;47.812;9.274;2023-05-09T13:43:45;23.20;99.90
19755;DHT22;10036;47.812;9.274;2023-05-09T13:46:12;23.00;99.90
19755;DHT22;10036;47.812;9.274;2023-05-09T13:48:40;22.90;99.90
19755;DHT22;10036;47.812;9.274;2023-05-09T13:51:07;23.20;99.90
19755;DHT22;10036;47.812;9.274;2023-05-09T13:53:34;23.40;99.90
19755;DHT22;10036;47.812;9.274;2023-05-09T13:56:01;22.90;99.90
19755;DHT22;10036;47.812;9.274;2023-05-09T13:58:28;23.00;99.90
19755;DHT22;10036;47.812;9.274;2023-05-09T14:00:55;23.40;99.90
19755;DHT22;10036;47.812;9.274;2023-05-09T14:03:22;23.20;99.90
19755;DHT22;10036;47.812;9.274;2023-05-09T14:05:51;23.00;99.90
19755;DHT22;10036;47.812;9.274;2023-05-09T14:08:18;23.00;99.90
19755;DHT22;10036;47.812;9.274;2023-05-09T14:10:45;23.00;99.90
19755;DHT22;10036;47.812;9.274;2023-05-09T14:13:12;23.10;99.90
19755;DHT22;10036;47.812;9.274;2023-05-09T14:15:40;23.10;99.90
19755;DHT22;10036;47.812;9.274;2023-05-09T14:18:06;23.00;99.90
19755;DHT22;10036;47.812;9.274;2023-05-09T14:20:33;22.90;99.90
19755;DHT22;10036;47.812;9.274;2023-05-09T14:23:03;22.70;99.90
19755;DHT22;10036;47.812;9.274;2023-05-09T14:25:30;22.80;99.90
19755;DHT22;10036;47.812;9.274;2023-05-09T14:27:57;22.80;99.90
19755;DHT22;10036;47.812;9.274;2023-05-09T14:30:24;22.70;99.90
19755;DHT22;10036;47.812;9.274;2023-05-09T14:32:51;22.50;99.90
19755;DHT22;10036;47.812;9.274;2023-05-09T14:35:18;22.70;99.90
19755;DHT22;10036;47.812;9.274;2023-05-09T14:37:45;22.90;99.90
19755;DHT22;10036;47.812;9.274;2023-05-09T14:40:13;22.90;99.90
19755;DHT22;10036;47.812;9.274;2023-05-09T14:42:40;22.90;99.90
19755;DHT22;10036;47.812;9.274;2023-05-09T14:45:09;22.90;99.90
19755;DHT22;10036;47.812;9.274;2023-05-09T14:47:37;22.90;99.90
19755;DHT22;10036;47.812;9.274;2023-05-09T14:50:05;22.70;99.90
19755;DHT22;10036;47.812;9.274;2023-05-09T14:52:34;22.60;99.90
19755;DHT22;10036;47.812;9.274;2023-05-09T14:55:01;22.40;99.90
19755;DHT22;10036;47.812;9.274;2023-05-09T14:57:32;22.30;99.90
19755;DHT22;10036;47.812;9.274;2023-05-09T14:59:59;22.40;99.90
19755;DHT22;10036;47.812;9.274;2023-05-09T15:02:26;22.40;99.90
19755;DHT22;10036;47.812;9.274;2023-05-09T15:04:53;22.30;99.90
19755;DHT22;10036;47.812;9.274;2023-05-09T15:07:20;22.00;99.90
19755;DHT22;10036;47.812;9.274;2023-05-09T15:09:47;21.90;99.90
19755;DHT22;10036;47.812;9.274;2023-05-09T15:12:14;21.90;99.90
19755;DHT22;10036;47.812;9.274;2023-05-09T15:14:42;22.10;99.90
19755;DHT22;10036;47.812;9.274;2023-05-09T15:17:09;22.00;99.90
19755;DHT22;10036;47.812;9.274;2023-05-09T15:19:36;22.00;99.90
19755;DHT22;10036;47.812;9.274;2023-05-09T15:22:03;21.90;99.90
19755;DHT22;10036;47.812;9.274;2023-05-09T15:24:30;21.80;99.90
19755;DHT22;10036;47.812;9.274;2023-05-09T15:26:57;21.50;99.90
19755;DHT22;10036;47.812;9.274;2023-05-09T15:29:24;21.60;99.90
19755;DHT22;10036;47.812;9.274;2023-05-09T15:31:53;21.60;99.90
19755;DHT22;10036;47.812;9.274;2023-05-09T15:34:20;21.40;99.90
19755;DHT22;10036;47.812;9.274;2023-05-09T15:36:48;21.40;99.90
19755;DHT22;10036;47.812;9.274;2023-05-09T15:39:14;21.20;99.90